Time;durP1;ratioP1;P1;durP2;ratioP2;P2;SDS_P1;SDS_P2;PMS_P1;PMS_P2;Temp;Humidity;BMP_temperature;BMP_pressure;BME280_temperature;BME280_humidity;BME280_pressure;Samples;Min_cycle;Max_cycle;Signal;HPM_P1;HPM_P2
2023/05/13 00:00:16;;;;;;;8.00;5.30;;;12.90;98.10;;;;;;5102307;28;20265;-65
2023/05/13 00:02:44;;;;;;;7.67;5.40;;;12.90;98.10;;;;;;5105913;28;20290;-65
2023/05/13 00:05:11;;;;;;;8.03;5.40;;;12.80;98.10;;;;;;5108278;28;20226;-65
2023/05/13 00:07:38;;;;;;;8.67;5.37;;;12.80;98.10;;;;;;5105495;28;20696;-65
2023/05/13 00:10:05;;;;;;;6.90;5.27;;;12.80;98.20;;;;;;5106426;28;20219;-65
2023/05/13 00:12:32;;;;;;;6.00;5.47;;;12.80;98.50;;;;;;5103795;28;20273;-65
2023/05/13 00:14:59;;;;;;;5.90;4.63;;;12.80;98.20;;;;;;5105826;28;20199;-65
2023/05/13 00:17:28;;;;;;;5.50;5.00;;;12.70;98.20;;;;;;5105130;28;20374;-65
2023/05/13 00:20:03;;;;;;;6.83;5.20;;;12.70;98.20;;;;;;5102559;28;20261;-65
2023/05/13 00:22:30;;;;;;;5.27;4.60;;;12.70;98.20;;;;;;5103521;28;20550;-65
2023/05/13 00:24:59;;;;;;;5.53;4.23;;;12.70;98.20;;;;;;5100150;28;20220;-65
2023/05/13 00:27:26;;;;;;;8.17;4.37;;;12.70;98.20;;;;;;5098543;28;20229;-65
2023/05/13 00:29:53;;;;;;;49.37;4.30;;;12.70;98.20;;;;;;5092544;28;20214;-65
2023/05/13 00:32:20;;;;;;;8.83;3.80;;;12.60;98.20;;;;;;5087862;28;20218;-65
2023/05/13 00:34:47;;;;;;;5.93;4.33;;;12.60;97.70;;;;;;5078560;28;20311;-65
2023/05/13 00:37:16;;;;;;;6.10;4.90;;;12.50;97.50;;;;;;5102265;28;20208;-65
2023/05/13 00:39:43;;;;;;;9.20;5.80;;;12.50;97.50;;;;;;5104495;28;20203;-65
2023/05/13 00:42:11;;;;;;;5.87;5.37;;;12.50;97.60;;;;;;5105420;28;20283;-65
2023/05/13 00:44:40;;;;;;;5.57;5.07;;;12.40;97.70;;;;;;5088011;28;20536;-65
2023/05/13 00:47:10;;;;;;;7.53;4.77;;;12.40;97.80;;;;;;5102486;28;20275;-65
2023/05/13 00:49:40;;;;;;;8.33;5.90;;;12.40;97.80;;;;;;5106211;28;20207;-65
2023/05/13 00:52:07;;;;;;;7.47;5.30;;;12.40;97.90;;;;;;5105354;28;20192;-65
2023/05/13 00:54:34;;;;;;;6.10;4.83;;;12.40;97.90;;;;;;5104559;28;20206;-65
2023/05/13 00:57:02;;;;;;;8.00;5.23;;;12.40;97.90;;;;;;5103424;28;20280;-65
2023/05/13 00:59:30;;;;;;;6.43;5.40;;;12.40;97.90;;;;;;5106954;28;20192;-65
2023/05/13 01:02:06;;;;;;;5.23;4.80;;;12.40;97.90;;;;;;5106515;28;20206;-65
2023/05/13 01:05:02;;;;;;;6.47;5.50;;;12.30;98.00;;;;;;5106389;28;20642;-65
2023/05/13 01:08:03;;;;;;;4.80;4.40;;;12.40;98.10;;;;;;5107864;28;20210;-65
2023/05/13 01:11:11;;;;;;;6.90;4.93;;;12.40;98.20;;;;;;5092770;28;20224;-65
2023/05/13 01:13:42;;;;;;;7.30;4.00;;;12.40;98.20;;;;;;5076954;28;20661;-65
2023/05/13 01:16:29;;;;;;;6.23;4.73;;;12.40;98.10;;;;;;5097321;28;20226;-65
2023/05/13 01:19:00;;;;;;;6.37;5.43;;;12.40;98.20;;;;;;5105934;28;20200;-65
2023/05/13 01:21:34;;;;;;;6.20;5.60;;;12.30;98.20;;;;;;5111370;28;20281;-65
2023/05/13 01:24:01;;;;;;;7.30;5.33;;;12.40;98.30;;;;;;5097688;28;20646;-65
2023/05/13 01:26:28;;;;;;;7.23;5.37;;;12.40;98.30;;;;;;5097768;28;20291;-65
2023/05/13 01:28:55;;;;;;;9.90;6.67;;;12.40;98.40;;;;;;5097196;28;20307;-65
2023/05/13 01:31:24;;;;;;;8.47;5.67;;;12.50;98.40;;;;;;5090343;28;20714;-65
2023/05/13 01:33:52;;;;;;;7.50;6.77;;;12.50;98.40;;;;;;5085209;28;20239;-65
2023/05/13 01:36:19;;;;;;;7.30;6.60;;;12.50;98.40;;;;;;5090881;28;20227;-65
2023/05/13 01:38:50;;;;;;;10.13;6.37;;;12.60;98.40;;;;;;5085434;28;20225;-65
2023/05/13 01:41:19;;;;;;;11.73;7.20;;;12.60;98.40;;;;;;5104676;28;20202;-65
2023/05/13 01:43:49;;;;;;;13.77;7.93;;;12.60;98.40;;;;;;5087402;28;20658;-65
2023/05/13 01:46:16;;;;;;;8.33;7.53;;;12.70;98.50;;;;;;5098206;28;20205;-65
2023/05/13 01:48:43;;;;;;;9.23;7.57;;;12.70;98.50;;;;;;5087999;28;20630;-65
2023/05/13 01:51:11;;;;;;;11.97;7.67;;;12.70;98.50;;;;;;5093180;28;20657;-65
2023/05/13 01:53:40;;;;;;;11.33;7.87;;;12.80;98.60;;;;;;5084679;28;20214;-65
2023/05/13 01:56:09;;;;;;;10.53;8.37;;;12.80;98.60;;;;;;5085179;28;20206;-65
2023/05/13 01:58:37;;;;;;;10.27;8.30;;;12.80;98.70;;;;;;5079570;28;20282;-66
2023/05/13 02:01:06;;;;;;;10.67;9.03;;;12.80;98.70;;;;;;5082959;28;20205;-65
2023/05/13 02:03:36;;;;;;;10.67;8.30;;;12.90;98.70;;;;;;5081227;28;20240;-65
2023/05/13 02:06:03;;;;;;;12.10;8.63;;;12.90;98.80;;;;;;5080252;28;20709;-65
2023/05/13 02:08:36;;;;;;;10.83;9.30;;;13.00;98.90;;;;;;5082800;28;20298;-65
2023/05/13 02:11:04;;;;;;;12.43;8.47;;;13.00;98.90;;;;;;5081728;28;20548;-65
2023/05/13 02:13:31;;;;;;;12.23;9.60;;;13.00;98.90;;;;;;5082407;28;20256;-65
2023/05/13 02:16:00;;;;;;;12.33;9.43;;;13.00;98.90;;;;;;5088487;28;20190;-65
2023/05/13 02:18:28;;;;;;;10.93;8.67;;;13.10;98.90;;;;;;5085505;28;20200;-65
2023/05/13 02:20:56;;;;;;;11.83;9.60;;;13.10;98.90;;;;;;5085736;28;20189;-65
2023/05/13 02:23:23;;;;;;;14.20;10.20;;;13.10;98.90;;;;;;5087084;28;20208;-65
2023/05/13 02:25:50;;;;;;;12.30;11.00;;;13.10;98.90;;;;;;5088123;28;20200;-65
2023/05/13 02:28:17;;;;;;;16.53;10.53;;;13.20;98.90;;;;;;5082292;28;20274;-65
2023/05/13 02:30:44;;;;;;;14.17;10.57;;;13.20;99.00;;;;;;5085618;28;20212;-65
2023/05/13 02:33:11;;;;;;;14.67;12.33;;;13.20;98.90;;;;;;5089648;28;20323;-65
2023/05/13 02:35:38;;;;;;;14.03;12.37;;;13.20;98.90;;;;;;5088500;28;20204;-65
2023/05/13 02:38:11;;;;;;;14.43;12.07;;;13.30;99.00;;;;;;5077524;28;20674;-65
2023/05/13 02:40:38;;;;;;;14.73;11.63;;;13.30;99.00;;;;;;5091705;28;20193;-65
2023/05/13 02:43:05;;;;;;;15.53;12.57;;;13.30;99.00;;;;;;5081818;28;20202;-65
2023/05/13 02:45:57;;;;;;;15.03;12.33;;;13.40;99.00;;;;;;5088800;28;20667;-65
2023/05/13 02:48:24;;;;;;;15.27;12.50;;;13.30;98.90;;;;;;5092575;28;20576;-65
2023/05/13 02:50:54;;;;;;;17.00;13.00;;;13.40;98.90;;;;;;5081285;28;20213;-65
2023/05/13 02:53:23;;;;;;;16.00;13.07;;;13.40;98.80;;;;;;5083168;28;20220;-65
2023/05/13 02:55:54;;;;;;;15.67;12.87;;;13.40;98.80;;;;;;5088661;28;20215;-65
2023/05/13 02:58:25;;;;;;;16.73;12.70;;;13.40;98.80;;;;;;5086899;28;20216;-65
2023/05/13 03:00:52;;;;;;;14.40;12.47;;;13.40;98.80;;;;;;5087440;28;20197;-65
2023/05/13 03:03:22;;;;;;;14.03;12.53;;;13.40;98.80;;;;;;5084679;28;20243;-65
2023/05/13 03:05:50;;;;;;;20.53;14.20;;;13.50;98.80;;;;;;5090879;28;20545;-65
2023/05/13 03:08:21;;;;;;;17.23;13.30;;;13.40;98.90;;;;;;5082110;28;20197;-65
2023/05/13 03:10:48;;;;;;;19.33;15.40;;;13.40;98.90;;;;;;5080978;28;20258;-65
2023/05/13 03:13:17;;;;;;;18.17;13.07;;;13.40;98.90;;;;;;5082413;28;20231;-65
2023/05/13 03:15:44;;;;;;;18.10;12.67;;;13.40;98.90;;;;;;5082838;28;20590;-65
2023/05/13 03:18:11;;;;;;;15.53;12.63;;;13.40;98.90;;;;;;5090659;28;20670;-65
2023/05/13 03:20:39;;;;;;;14.03;12.33;;;13.40;99.00;;;;;;5088053;28;20239;-65
2023/05/13 03:23:09;;;;;;;16.90;13.43;;;13.40;99.00;;;;;;5081602;28;20205;-65
2023/05/13 03:25:36;;;;;;;14.83;12.43;;;13.40;99.00;;;;;;5077661;28;20217;-65
2023/05/13 03:28:10;;;;;;;12.50;11.20;;;13.40;99.00;;;;;;5088007;28;20205;-65
2023/05/13 03:30:42;;;;;;;15.00;12.00;;;13.30;99.00;;;;;;5084545;28;20250;-65
2023/05/13 03:33:16;;;;;;;14.27;11.23;;;13.30;99.00;;;;;;5087256;28;20226;-65
2023/05/13 03:35:48;;;;;;;16.07;12.97;;;13.30;99.00;;;;;;5082785;28;20232;-65
2023/05/13 03:38:18;;;;;;;19.00;12.40;;;13.30;99.10;;;;;;5089804;28;20554;-65
2023/05/13 03:40:48;;;;;;;13.63;12.23;;;13.30;99.00;;;;;;5093039;28;20193;-65
2023/05/13 03:43:16;;;;;;;17.57;13.50;;;13.30;99.00;;;;;;5087989;28;20212;-65
2023/05/13 03:45:49;;;;;;;17.30;13.47;;;13.30;99.10;;;;;;5093055;28;20233;-65
2023/05/13 03:48:20;;;;;;;20.53;15.07;;;13.30;99.40;;;;;;5107151;28;20303;-65
2023/05/13 03:50:52;;;;;;;19.77;15.70;;;13.30;99.20;;;;;;5094673;28;20207;-65
2023/05/13 03:53:22;;;;;;;19.57;14.20;;;13.40;99.50;;;;;;5093377;28;20212;-65
2023/05/13 03:55:49;;;;;;;20.27;16.67;;;13.40;99.20;;;;;;5095443;28;20224;-65
2023/05/13 03:58:17;;;;;;;29.43;17.20;;;13.40;99.20;;;;;;5107598;28;20211;-65
2023/05/13 04:00:47;;;;;;;21.00;16.70;;;13.40;99.20;;;;;;5090318;28;20246;-65
2023/05/13 04:03:15;;;;;;;22.37;17.93;;;13.50;99.30;;;;;;5095503;28;20210;-65
2023/05/13 04:05:48;;;;;;;25.67;17.93;;;13.50;99.30;;;;;;5104085;28;20204;-64
2023/05/13 04:08:15;;;;;;;21.73;18.33;;;13.60;99.40;;;;;;5104475;28;20264;-65
2023/05/13 04:10:42;;;;;;;24.00;18.33;;;13.60;99.40;;;;;;5082464;28;20209;-65
2023/05/13 04:13:09;;;;;;;25.60;20.00;;;13.60;99.40;;;;;;5099014;28;20204;-65
2023/05/13 04:15:36;;;;;;;28.70;18.30;;;13.70;99.40;;;;;;5084573;28;20712;-65
2023/05/13 04:18:04;;;;;;;24.20;16.97;;;13.70;99.40;;;;;;5084447;28;20642;-65
2023/05/13 04:20:36;;;;;;;24.13;17.17;;;13.70;99.40;;;;;;5087196;28;20203;-65
2023/05/13 04:23:03;;;;;;;20.27;16.30;;;13.80;99.50;;;;;;5099373;28;20207;-65
2023/05/13 04:25:30;;;;;;;19.33;15.80;;;13.80;99.50;;;;;;5085358;28;20602;-65
2023/05/13 04:27:57;;;;;;;20.13;15.13;;;13.90;99.50;;;;;;5092767;28;20664;-65
2023/05/13 04:30:29;;;;;;;20.53;16.40;;;13.90;99.50;;;;;;5091340;28;20230;-65
2023/05/13 04:32:57;;;;;;;21.73;14.97;;;13.90;99.50;;;;;;5085166;28;20204;-65
2023/05/13 04:35:24;;;;;;;18.50;15.33;;;13.90;99.50;;;;;;5087671;28;20229;-65
2023/05/13 04:37:55;;;;;;;22.50;15.50;;;14.00;99.50;;;;;;5088067;28;20274;-65
2023/05/13 04:40:23;;;;;;;22.10;14.13;;;14.00;99.50;;;;;;5092799;28;20218;-65
2023/05/13 04:42:53;;;;;;;18.60;14.00;;;14.00;99.50;;;;;;5100276;28;20238;-65
2023/05/13 04:45:26;;;;;;;19.10;15.53;;;14.10;99.50;;;;;;5087177;28;20213;-65
2023/05/13 04:47:56;;;;;;;17.93;14.43;;;14.10;99.50;;;;;;5092746;28;20201;-65
2023/05/13 04:50:24;;;;;;;21.63;14.53;;;14.10;99.50;;;;;;5094934;28;20206;-65
2023/05/13 04:52:55;;;;;;;18.80;14.13;;;14.20;99.50;;;;;;5088739;28;20225;-65
2023/05/13 04:55:22;;;;;;;19.37;14.00;;;14.20;99.50;;;;;;5098021;28;20291;-65
2023/05/13 04:57:52;;;;;;;18.63;14.40;;;14.20;99.50;;;;;;5099263;28;20290;-65
2023/05/13 05:00:18;;;;;;;23.90;15.70;;;14.30;99.60;;;;;;5086299;28;20306;-65
2023/05/13 05:02:48;;;;;;;19.57;13.90;;;14.30;99.60;;;;;;5098239;28;20191;-65
2023/05/13 05:05:15;;;;;;;23.20;14.37;;;14.40;99.50;;;;;;5088889;28;20307;-65
2023/05/13 05:07:44;;;;;;;18.47;14.17;;;14.40;99.40;;;;;;5108781;28;20203;-64
2023/05/13 05:10:13;;;;;;;25.80;14.10;;;14.50;99.30;;;;;;5097893;28;20222;-65
2023/05/13 05:12:43;;;;;;;21.10;15.53;;;14.50;99.30;;;;;;5088038;28;20207;-65
2023/05/13 05:15:16;;;;;;;18.30;13.30;;;14.60;99.30;;;;;;5094958;28;20234;-65
2023/05/13 05:17:49;;;;;;;18.00;13.37;;;14.60;99.30;;;;;;5108571;28;20474;-65
2023/05/13 05:20:16;;;;;;;21.80;12.90;;;14.70;99.20;;;;;;5098979;28;20199;-65
2023/05/13 05:22:46;;;;;;;17.77;13.90;;;14.70;99.10;;;;;;5098784;28;20668;-65
2023/05/13 05:25:14;;;;;;;21.57;15.03;;;14.60;99.10;;;;;;5090180;28;20291;-65
2023/05/13 05:27:44;;;;;;;21.70;14.40;;;14.60;99.10;;;;;;5088279;28;20199;-65
2023/05/13 05:30:13;;;;;;;20.37;14.17;;;14.60;99.10;;;;;;5090707;28;20647;-65
2023/05/13 05:32:42;;;;;;;19.80;14.23;;;14.60;99.30;;;;;;5093981;28;20207;-65
2023/05/13 05:35:12;;;;;;;20.13;15.13;;;14.70;99.30;;;;;;5085671;28;20313;-65
2023/05/13 05:37:46;;;;;;;22.07;15.40;;;14.70;99.30;;;;;;5097828;28;20626;-65
2023/05/13 05:40:15;;;;;;;22.83;15.73;;;14.80;99.30;;;;;;5107155;28;20295;-65
2023/05/13 05:42:45;;;;;;;26.67;17.20;;;14.70;99.20;;;;;;5108237;28;20227;-65
2023/05/13 05:45:12;;;;;;;22.67;16.00;;;14.80;99.30;;;;;;5112856;28;20211;-65
2023/05/13 05:47:40;;;;;;;25.70;17.07;;;14.80;99.40;;;;;;5097895;28;20215;-65
2023/05/13 05:50:13;;;;;;;27.93;17.07;;;14.90;99.40;;;;;;5092556;28;20215;-65
2023/05/13 05:52:40;;;;;;;20.70;15.60;;;14.90;99.40;;;;;;5099757;28;20233;-65
2023/05/13 05:55:08;;;;;;;27.37;17.83;;;15.00;99.40;;;;;;5095775;28;20211;-65
2023/05/13 05:57:35;;;;;;;23.73;17.67;;;15.00;99.40;;;;;;5082828;28;21081;-65
2023/05/13 06:00:06;;;;;;;23.80;18.90;;;15.00;99.40;;;;;;5097689;28;20196;-65
2023/05/13 06:02:41;;;;;;;29.47;18.37;;;15.10;99.40;;;;;;5106697;28;20196;-65
2023/05/13 06:05:09;;;;;;;27.63;19.67;;;15.10;99.30;;;;;;5086703;28;20957;-64
2023/05/13 06:07:38;;;;;;;30.60;20.07;;;15.10;99.30;;;;;;5095438;28;20262;-64
2023/05/13 06:10:07;;;;;;;29.53;19.63;;;15.20;99.30;;;;;;5101220;28;20197;-64
2023/05/13 06:12:34;;;;;;;33.20;21.30;;;15.20;99.20;;;;;;5080881;28;20214;-64
2023/05/13 06:15:01;;;;;;;28.20;20.20;;;15.20;99.20;;;;;;5083047;28;20224;-64
2023/05/13 06:17:31;;;;;;;37.10;22.77;;;15.30;99.20;;;;;;5086047;28;20216;-64
2023/05/13 06:19:58;;;;;;;39.33;22.50;;;15.30;99.20;;;;;;5090014;28;20208;-64
2023/05/13 06:22:27;;;;;;;29.57;21.03;;;15.40;99.20;;;;;;5112641;28;20299;-64
2023/05/13 06:24:55;;;;;;;35.43;22.87;;;15.40;99.10;;;;;;5096911;28;20274;-65
2023/05/13 06:27:22;;;;;;;31.87;21.23;;;15.50;99.20;;;;;;5109439;28;20635;-65
2023/05/13 06:29:49;;;;;;;38.87;23.40;;;15.60;99.10;;;;;;5090414;28;20211;-65
2023/05/13 06:32:18;;;;;;;32.20;21.27;;;15.70;99.10;;;;;;5104151;28;20273;-65
2023/05/13 06:34:45;;;;;;;36.20;21.03;;;15.80;99.00;;;;;;5096918;28;20359;-64
2023/05/13 06:37:15;;;;;;;30.27;20.50;;;15.80;98.80;;;;;;5093042;28;20218;-64
2023/05/13 06:39:42;;;;;;;31.40;21.17;;;15.90;98.80;;;;;;5106496;28;20226;-64
2023/05/13 06:42:11;;;;;;;30.70;20.77;;;15.90;98.70;;;;;;5095110;28;20201;-64
2023/05/13 06:44:47;;;;;;;27.80;19.20;;;16.00;98.70;;;;;;5105442;28;20213;-65
2023/05/13 06:47:15;;;;;;;30.63;19.70;;;16.00;98.50;;;;;;5110082;28;20194;-65
2023/05/13 06:49:42;;;;;;;28.43;19.03;;;16.00;98.30;;;;;;5095101;28;20208;-65
2023/05/13 06:52:10;;;;;;;31.80;19.37;;;16.00;98.10;;;;;;5106079;28;20209;-65
2023/05/13 06:54:37;;;;;;;22.57;15.90;;;16.00;98.10;;;;;;5104127;28;20255;-65
2023/05/13 06:57:06;;;;;;;25.27;17.10;;;16.00;98.20;;;;;;5103489;28;20512;-65
2023/05/13 06:59:34;;;;;;;27.70;16.47;;;16.00;98.20;;;;;;5108745;28;20192;-65
2023/05/13 07:02:01;;;;;;;24.90;18.10;;;16.10;98.20;;;;;;5100908;28;20284;-65
2023/05/13 07:04:29;;;;;;;29.50;19.07;;;16.10;98.10;;;;;;5101363;28;20208;-65
2023/05/13 07:06:58;;;;;;;31.33;18.17;;;16.00;97.90;;;;;;5101919;28;20215;-65
2023/05/13 07:09:27;;;;;;;25.60;17.67;;;16.00;97.90;;;;;;5103091;28;20212;-65
2023/05/13 07:11:54;;;;;;;27.13;17.87;;;16.00;97.90;;;;;;5101817;28;20288;-64
2023/05/13 07:14:25;;;;;;;24.67;17.03;;;16.00;98.00;;;;;;5099566;28;20213;-64
2023/05/13 07:16:52;;;;;;;30.20;17.47;;;16.10;98.00;;;;;;5103290;28;20196;-65
2023/05/13 07:19:19;;;;;;;27.07;16.70;;;16.10;98.00;;;;;;5104917;28;20694;-65
2023/05/13 07:21:46;;;;;;;29.33;17.47;;;16.10;98.00;;;;;;5106524;28;20225;-65
2023/05/13 07:24:13;;;;;;;28.87;15.90;;;16.00;98.00;;;;;;5100500;28;20224;-65
2023/05/13 07:26:40;;;;;;;23.47;16.00;;;16.00;97.90;;;;;;5107393;28;20211;-65
2023/05/13 07:29:08;;;;;;;26.47;15.27;;;16.00;97.80;;;;;;5100805;28;20215;-65
2023/05/13 07:31:35;;;;;;;25.20;15.30;;;16.00;97.90;;;;;;5104460;28;20288;-65
2023/05/13 07:34:05;;;;;;;20.20;14.37;;;16.00;98.00;;;;;;5099941;28;20615;-65
2023/05/13 07:36:32;;;;;;;21.53;13.93;;;16.00;98.00;;;;;;5103872;28;20210;-65
2023/05/13 07:39:03;;;;;;;20.30;13.07;;;16.10;98.10;;;;;;5097286;28;20197;-65
2023/05/13 07:41:30;;;;;;;18.73;14.10;;;16.20;98.20;;;;;;5105537;28;20268;-65
2023/05/13 07:43:57;;;;;;;20.37;14.67;;;16.20;98.00;;;;;;5097190;28;20197;-65
2023/05/13 07:46:24;;;;;;;20.00;14.60;;;16.20;97.90;;;;;;5101472;28;20201;-65
2023/05/13 07:48:54;;;;;;;23.03;14.77;;;16.30;97.80;;;;;;5101007;28;20634;-65
2023/05/13 07:51:23;;;;;;;20.10;15.27;;;16.20;97.60;;;;;;5098144;28;20266;-65
2023/05/13 07:53:51;;;;;;;21.10;14.70;;;16.20;97.60;;;;;;5100749;28;20507;-65
2023/05/13 07:56:18;;;;;;;22.77;14.20;;;16.30;97.80;;;;;;5103573;28;20258;-65
2023/05/13 07:58:48;;;;;;;21.17;14.87;;;16.30;97.80;;;;;;5105157;28;20197;-65
2023/05/13 08:01:15;;;;;;;14.73;12.97;;;16.40;97.80;;;;;;5103766;28;20194;-65
2023/05/13 08:03:42;;;;;;;19.27;14.90;;;16.50;97.70;;;;;;5105453;28;20198;-65
2023/05/13 08:06:10;;;;;;;17.73;14.00;;;16.50;97.70;;;;;;5103598;28;20222;-65
2023/05/13 08:08:37;;;;;;;19.80;13.53;;;16.50;97.60;;;;;;5104473;28;20200;-64
2023/05/13 08:11:04;;;;;;;15.87;13.03;;;16.60;97.60;;;;;;5084716;28;20192;-64
2023/05/13 08:13:31;;;;;;;16.70;13.80;;;16.70;97.60;;;;;;5102221;28;20242;-64
2023/05/13 08:16:02;;;;;;;13.80;11.07;;;16.80;97.50;;;;;;5101807;28;20241;-64
2023/05/13 08:18:29;;;;;;;17.80;12.10;;;16.80;97.50;;;;;;5082295;28;20207;-65
2023/05/13 08:20:58;;;;;;;17.43;12.17;;;16.90;97.40;;;;;;5084924;28;20549;-64
2023/05/13 08:23:25;;;;;;;16.33;10.27;;;17.10;97.40;;;;;;5096403;28;20235;-65
2023/05/13 08:26:10;;;;;;;15.57;10.57;;;17.30;97.30;;;;;;5103252;28;20546;-64
2023/05/13 08:28:37;;;;;;;16.57;10.63;;;17.40;96.90;;;;;;5100445;28;20214;-64
2023/05/13 08:31:05;;;;;;;15.67;10.37;;;17.50;96.90;;;;;;5096988;28;20275;-64
2023/05/13 08:33:32;;;;;;;11.93;10.33;;;17.70;96.50;;;;;;5101805;28;20287;-64
2023/05/13 08:36:06;;;;;;;14.60;9.90;;;17.90;96.40;;;;;;5107388;28;20320;-64
2023/05/13 08:38:34;;;;;;;14.60;9.70;;;18.10;95.70;;;;;;5108339;28;20281;-64
2023/05/13 08:41:05;;;;;;;12.17;9.20;;;18.30;95.40;;;;;;5106127;28;20656;-64
2023/05/13 08:43:33;;;;;;;11.30;9.10;;;18.60;95.50;;;;;;5095563;28;20206;-64
2023/05/13 08:46:02;;;;;;;12.37;8.60;;;18.90;95.00;;;;;;5104639;28;20555;-65
2023/05/13 08:48:31;;;;;;;11.07;8.07;;;19.20;93.70;;;;;;5102336;28;20203;-65
2023/05/13 08:51:01;;;;;;;11.70;8.37;;;19.20;93.00;;;;;;5105120;28;20562;-64
2023/05/13 08:53:30;;;;;;;11.50;7.47;;;19.10;92.70;;;;;;5083793;28;20288;-64
2023/05/13 08:55:59;;;;;;;12.30;7.27;;;18.90;92.40;;;;;;5085058;28;20677;-65
2023/05/13 08:58:26;;;;;;;8.40;7.60;;;18.80;92.50;;;;;;5099679;28;20204;-65
2023/05/13 09:00:54;;;;;;;14.77;8.17;;;18.80;92.60;;;;;;5102098;28;20195;-65
2023/05/13 09:03:22;;;;;;;11.20;6.93;;;18.80;92.60;;;;;;5101135;28;20621;-65
2023/05/13 09:05:49;;;;;;;7.93;7.13;;;18.80;92.30;;;;;;5105542;28;20516;-64
2023/05/13 09:08:16;;;;;;;10.47;7.13;;;18.90;92.30;;;;;;5112116;28;20246;-65
2023/05/13 09:10:43;;;;;;;9.20;5.87;;;19.00;92.50;;;;;;5098648;28;20282;-65
2023/05/13 09:13:18;;;;;;;6.63;5.90;;;19.10;92.10;;;;;;5100849;28;20207;-64
2023/05/13 09:15:46;;;;;;;10.83;7.40;;;19.10;91.40;;;;;;5104013;28;20211;-64
2023/05/13 09:18:14;;;;;;;10.83;7.60;;;19.00;91.40;;;;;;5099574;28;20200;-64
2023/05/13 09:20:47;;;;;;;6.83;6.00;;;19.00;91.70;;;;;;5101892;28;20594;-64
2023/05/13 09:23:17;;;;;;;8.23;7.43;;;19.10;92.00;;;;;;5099701;28;20602;-64
2023/05/13 09:25:44;;;;;;;8.07;6.23;;;19.40;91.70;;;;;;5105850;28;20192;-64
2023/05/13 09:28:14;;;;;;;7.20;5.07;;;19.50;91.60;;;;;;5102520;28;20690;-64
2023/05/13 09:30:41;;;;;;;8.77;5.27;;;19.70;91.40;;;;;;5104260;28;20303;-65
2023/05/13 09:33:14;;;;;;;9.37;6.00;;;20.00;90.10;;;;;;5105627;28;20491;-65
2023/05/13 09:35:53;;;;;;;6.50;5.40;;;20.20;89.20;;;;;;5067894;28;20274;-65
2023/05/13 09:38:24;;;;;;;7.20;4.77;;;20.30;88.00;;;;;;5068182;28;20197;-63
2023/05/13 09:41:02;;;;;;;5.83;4.67;;;20.20;87.00;;;;;;5071575;28;20201;-64
2023/05/13 09:43:32;;;;;;;8.63;5.40;;;20.10;87.50;;;;;;5070568;28;20282;-65
2023/05/13 09:46:01;;;;;;;8.87;6.17;;;20.10;88.60;;;;;;5065647;28;20284;-65
2023/05/13 09:48:33;;;;;;;7.70;6.13;;;20.20;88.90;;;;;;5068702;28;20696;-65
2023/05/13 09:51:00;;;;;;;10.27;5.47;;;20.40;90.10;;;;;;5069586;28;20309;-65
2023/05/13 09:53:31;;;;;;;7.67;4.77;;;20.60;89.50;;;;;;5065871;28;20214;-64
2023/05/13 09:55:59;;;;;;;8.50;4.50;;;20.70;88.30;;;;;;5067245;28;20218;-65
2023/05/13 09:58:27;;;;;;;6.40;4.57;;;20.70;87.20;;;;;;5065533;28;20308;-64
2023/05/13 10:00:55;;;;;;;7.80;3.90;;;20.60;86.30;;;;;;5064062;28;20210;-63
2023/05/13 10:03:23;;;;;;;8.00;4.00;;;20.50;86.50;;;;;;5065091;28;20209;-64
2023/05/13 10:05:51;;;;;;;6.40;4.10;;;20.50;85.60;;;;;;5067205;28;20205;-64
2023/05/13 10:08:18;;;;;;;5.23;3.67;;;20.70;85.80;;;;;;5085440;28;20297;-65
2023/05/13 10:10:48;;;;;;;8.90;4.30;;;21.00;86.00;;;;;;5068291;28;20223;-65
2023/05/13 10:13:18;;;;;;;11.03;3.70;;;21.20;85.80;;;;;;5067668;28;20293;-64
2023/05/13 10:15:51;;;;;;;6.70;3.60;;;21.50;84.70;;;;;;5073013;28;20300;-64
2023/05/13 10:18:20;;;;;;;10.30;3.23;;;21.80;84.60;;;;;;5068038;28;20198;-64
2023/05/13 10:20:51;;;;;;;6.53;3.00;;;22.00;83.20;;;;;;5067371;28;20546;-64
2023/05/13 10:23:22;;;;;;;4.63;2.67;;;22.30;82.80;;;;;;5066953;28;20284;-64
2023/05/13 10:25:53;;;;;;;6.17;2.33;;;22.50;82.50;;;;;;5067539;28;20595;-64
2023/05/13 10:28:20;;;;;;;3.37;2.67;;;22.70;81.40;;;;;;5067547;28;20779;-65
2023/05/13 10:30:50;;;;;;;3.93;2.10;;;22.80;80.50;;;;;;5073256;28;20195;-65
2023/05/13 10:33:19;;;;;;;4.10;2.27;;;22.90;78.30;;;;;;5065721;28;20198;-64
2023/05/13 10:35:56;;;;;;;4.50;2.30;;;22.80;77.20;;;;;;5099547;28;20264;-65
2023/05/13 10:39:10;;;;;;;4.40;2.10;;;22.80;77.90;;;;;;5099691;28;20196;-64
2023/05/13 10:42:06;;;;;;;3.83;1.50;;;22.80;78.80;;;;;;5079341;28;20719;-65
2023/05/13 10:44:34;;;;;;;5.27;2.17;;;22.90;78.10;;;;;;5109154;28;20283;-65
2023/05/13 10:47:03;;;;;;;3.83;2.00;;;22.90;76.70;;;;;;5103786;28;20639;-65
2023/05/13 10:49:33;;;;;;;1.80;1.70;;;22.70;74.40;;;;;;5105862;28;20234;-65
2023/05/13 10:52:08;;;;;;;4.90;2.23;;;22.40;75.40;;;;;;5104342;28;20204;-66
2023/05/13 10:54:40;;;;;;;6.20;2.00;;;22.00;76.60;;;;;;5108111;28;20201;-66
2023/05/13 10:57:08;;;;;;;4.10;2.10;;;21.80;78.20;;;;;;5101004;28;20514;-66
2023/05/13 10:59:37;;;;;;;6.13;2.23;;;21.80;77.10;;;;;;5106904;28;20196;-66
2023/05/13 11:02:23;;;;;;;3.87;1.93;;;22.00;77.10;;;;;;5105971;28;20201;-66
2023/05/13 11:05:00;;;;;;;3.40;2.10;;;22.20;75.50;;;;;;5106770;28;20199;-66
2023/05/13 11:07:30;;;;;;;4.37;1.97;;;22.40;75.30;;;;;;5100176;28;20633;-66
2023/05/13 11:09:58;;;;;;;4.90;1.87;;;22.40;75.30;;;;;;5104353;28;20309;-66
2023/05/13 11:12:28;;;;;;;3.07;2.30;;;22.40;76.40;;;;;;5104265;28;20186;-66
2023/05/13 11:14:55;;;;;;;5.70;2.80;;;22.20;77.60;;;;;;5105113;28;20271;-66
2023/05/13 11:17:22;;;;;;;3.70;2.03;;;22.20;77.90;;;;;;5101907;28;20208;-66
2023/05/13 11:19:51;;;;;;;4.97;1.83;;;22.20;77.50;;;;;;5102806;28;20287;-66
2023/05/13 11:22:18;;;;;;;2.67;1.70;;;22.10;77.40;;;;;;5111177;28;20635;-66
2023/05/13 11:25:01;;;;;;;3.93;1.90;;;21.90;76.40;;;;;;5108178;28;20204;-66
2023/05/13 11:27:37;;;;;;;2.23;1.63;;;21.60;76.80;;;;;;5110808;28;20586;-66
2023/05/13 11:30:21;;;;;;;7.67;1.83;;;21.30;77.60;;;;;;5106802;28;20207;-67
2023/05/13 11:32:55;;;;;;;3.83;1.70;;;21.10;78.40;;;;;;5105270;28;20235;-66
2023/05/13 11:35:27;;;;;;;2.47;1.83;;;20.90;80.20;;;;;;5101883;28;20248;-66
2023/05/13 11:37:56;;;;;;;3.20;1.30;;;20.80;81.30;;;;;;5104683;28;20265;-65
2023/05/13 11:40:35;;;;;;;1.30;0.90;;;20.80;81.70;;;;;;5104888;28;20259;-65
2023/05/13 11:43:07;;;;;;;3.03;0.87;;;20.60;80.90;;;;;;5103851;28;20271;-66
2023/05/13 11:45:37;;;;;;;3.03;1.33;;;20.40;79.90;;;;;;5092645;28;20208;-66
2023/05/13 11:48:22;;;;;;;2.00;1.00;;;20.00;80.70;;;;;;5085508;28;20195;-65
2023/05/13 11:50:53;;;;;;;1.90;0.90;;;19.80;80.70;;;;;;5107173;28;20257;-66
2023/05/13 11:53:21;;;;;;;2.80;1.20;;;19.50;81.30;;;;;;5109090;28;20222;-66
2023/05/13 11:55:48;;;;;;;1.43;1.00;;;19.30;82.70;;;;;;5106648;28;20222;-65
2023/05/13 11:58:15;;;;;;;2.57;0.87;;;19.10;83.90;;;;;;5112006;28;20196;-66
2023/05/13 12:00:42;;;;;;;1.47;0.77;;;19.00;84.40;;;;;;5107756;28;20493;-66
2023/05/13 12:03:14;;;;;;;1.53;0.80;;;19.00;84.20;;;;;;5090695;28;20199;-66
2023/05/13 12:05:43;;;;;;;0.50;0.50;;;18.90;83.80;;;;;;5102166;28;20207;-66
2023/05/13 12:08:10;;;;;;;2.70;0.80;;;18.80;84.20;;;;;;5108828;28;20529;-66
2023/05/13 12:10:43;;;;;;;3.70;0.90;;;18.80;84.70;;;;;;5101639;28;20195;-66
2023/05/13 12:13:11;;;;;;;1.50;0.70;;;18.70;85.60;;;;;;5103679;28;20197;-66
2023/05/13 12:15:38;;;;;;;3.43;1.20;;;18.70;86.10;;;;;;5105057;28;20645;-65
2023/05/13 12:18:06;;;;;;;2.43;0.90;;;18.70;87.00;;;;;;5104896;28;20200;-65
2023/05/13 12:20:34;;;;;;;3.80;1.20;;;18.70;87.80;;;;;;5103385;28;20272;-65
2023/05/13 12:23:01;;;;;;;1.73;1.07;;;18.80;88.10;;;;;;5098325;28;20259;-65
2023/05/13 12:25:34;;;;;;;3.57;1.30;;;18.80;88.80;;;;;;5087007;28;20237;-65
2023/05/13 12:28:23;;;;;;;2.73;1.17;;;18.90;89.70;;;;;;5103342;28;20226;-65
2023/05/13 12:31:07;;;;;;;3.30;1.07;;;19.00;90.30;;;;;;5105622;28;20203;-65
2023/05/13 12:33:41;;;;;;;4.77;1.00;;;19.30;90.40;;;;;;5104033;28;20510;-65
2023/05/13 12:36:34;;;;;;;3.17;1.03;;;19.60;90.10;;;;;;5103289;28;20216;-65
2023/05/13 12:39:11;;;;;;;2.50;0.83;;;19.90;88.70;;;;;;5103292;28;20199;-66
2023/05/13 12:41:40;;;;;;;3.83;1.20;;;20.20;87.50;;;;;;5089340;28;20639;-65
2023/05/13 12:44:13;;;;;;;4.13;0.90;;;20.40;86.80;;;;;;5103055;28;20219;-65
2023/05/13 12:47:01;;;;;;;2.37;0.87;;;20.70;86.30;;;;;;5108973;28;20219;-65
2023/05/13 12:49:28;;;;;;;1.20;0.90;;;21.00;83.90;;;;;;5103976;28;20201;-66